Time;durP1;ratioP1;P1;durP2;ratioP2;P2;SDS_P1;SDS_P2;PMS_P1;PMS_P2;Temp;Humidity;BMP_temperature;BMP_pressure;BME280_temperature;BME280_humidity;BME280_pressure;Samples;Min_cycle;Max_cycle;Signal;HPM_P1;HPM_P2
2021/05/08 00:12:50;;;;;;;12.70;6.23;;;;;;;4.59;100.00;100038.68;712285;1177;114097;-75
2021/05/08 00:28:11;;;;;;;12.80;5.83;;;;;;;4.29;100.00;100061.39;712363;1193;113840;-76
2021/05/08 00:43:31;;;;;;;7.27;4.13;;;;;;;4.15;100.00;100075.27;712360;1202;113721;-74
2021/05/08 00:58:52;;;;;;;5.80;3.45;;;;;;;3.99;100.00;100097.95;712483;1203;114371;-74
2021/05/08 01:14:13;;;;;;;11.30;4.18;;;;;;;3.82;100.00;100096.42;712514;1203;114578;-75
2021/05/08 01:29:33;;;;;;;70.93;15.57;;;;;;;3.76;100.00;100108.03;712351;1202;114173;-75
2021/05/08 01:44:53;;;;;;;104.90;29.23;;;;;;;3.81;100.00;100121.55;712233;1201;114104;-75
2021/05/08 02:00:18;;;;;;;24.63;9.93;;;;;;;3.93;100.00;100132.08;712312;1194;114148;-75
2021/05/08 02:15:39;;;;;;;8.15;5.38;;;;;;;4.08;100.00;100149.30;712280;1201;114539;-76
2021/05/08 02:30:59;;;;;;;9.83;4.40;;;;;;;4.23;100.00;100165.66;712395;1202;115303;-75
2021/05/08 02:46:20;;;;;;;5.00;3.18;;;;;;;4.36;100.00;100175.28;712293;1176;115324;-75
2021/05/08 03:01:40;;;;;;;72.53;24.23;;;;;;;4.52;100.00;100193.32;712369;1179;114232;-75
2021/05/08 03:17:01;;;;;;;40.50;16.63;;;;;;;4.57;100.00;100209.45;712379;1202;115240;-74
2021/05/08 03:32:29;;;;;;;10.63;7.18;;;;;;;4.71;100.00;100230.19;712645;1176;115182;-74
2021/05/08 03:47:51;;;;;;;7.60;4.50;;;;;;;4.76;100.00;100248.89;712245;1177;114330;-73
2021/05/08 04:03:12;;;;;;;8.45;4.50;;;;;;;4.82;100.00;100261.50;712606;1205;114470;-76
2021/05/08 04:18:32;;;;;;;8.80;4.90;;;;;;;4.93;100.00;100272.98;713235;1202;114003;-75
2021/05/08 04:33:53;;;;;;;6.93;4.20;;;;;;;5.09;100.00;100281.44;714105;1202;113745;-74
2021/05/08 04:49:13;;;;;;;14.10;7.15;;;;;;;5.48;100.00;100279.75;712626;1188;113527;-75
2021/05/08 05:04:34;;;;;;;14.73;8.90;;;;;;;5.81;100.00;100294.03;716384;1168;114991;-74
2021/05/08 05:19:55;;;;;;;16.13;7.93;;;;;;;6.34;100.00;100295.67;713383;1202;114277;-74
2021/05/08 05:35:15;;;;;;;8.80;4.95;;;;;;;6.55;100.00;100322.00;712524;1202;113564;-75
2021/05/08 05:50:43;;;;;;;6.88;4.93;;;;;;;6.69;100.00;100336.67;712325;1202;113655;-75
2021/05/08 06:06:08;;;;;;;7.00;4.98;;;;;;;6.90;100.00;100346.50;712519;1202;113726;-74
2021/05/08 06:21:29;;;;;;;10.70;6.90;;;;;;;7.32;100.00;100360.84;713060;1202;113682;-74
2021/05/08 06:36:50;;;;;;;12.07;6.60;;;;;;;7.40;100.00;100386.35;712800;1203;115279;-75
2021/05/08 06:52:11;;;;;;;9.55;7.35;;;;;;;7.44;100.00;100400.87;713074;1180;114580;-79
2021/05/08 07:07:31;;;;;;;13.65;9.30;;;;;;;7.37;100.00;100401.42;714298;1202;113845;-79
2021/05/08 07:22:52;;;;;;;20.27;12.17;;;;;;;7.41;100.00;100416.73;713800;1178;113674;-80
2021/05/08 07:38:13;;;;;;;22.08;14.25;;;;;;;7.76;100.00;100421.16;714015;1202;114249;-80
2021/05/08 07:53:33;;;;;;;19.00;13.60;;;;;;;8.00;100.00;100436.77;714052;1181;114552;-79
2021/05/08 08:08:54;;;;;;;26.70;17.60;;;;;;;8.41;100.00;100449.45;714501;1202;115050;-79
2021/05/08 08:24:14;;;;;;;19.03;11.78;;;;;;;9.30;100.00;100452.15;714132;1203;114811;-80
2021/05/08 08:39:35;;;;;;;34.27;21.03;;;;;;;9.08;100.00;100463.48;713611;1205;114146;-80
2021/05/08 08:54:57;;;;;;;58.33;23.30;;;;;;;9.51;100.00;100460.06;732208;1187;114062;-79
2021/05/08 09:10:32;;;;;;;17.63;9.50;;;;;;;10.84;100.00;100462.19;715341;1206;114990;-78
2021/05/08 09:26:05;;;;;;;117.30;50.30;;;;;;;9.53;94.07;100473.88;713184;1178;114971;-77
2021/05/08 09:41:45;;;;;;;38.33;13.58;;;;;;;9.06;96.41;100471.47;712870;1180;114158;-80
2021/05/08 09:57:19;;;;;;;40.63;18.33;;;;;;;11.50;91.81;100445.05;713819;1203;114323;-79
2021/05/08 10:12:39;;;;;;;7.50;4.93;;;;;;;11.71;81.09;100454.61;714871;1203;114608;-77
2021/05/08 10:28:00;;;;;;;5.87;3.90;;;;;;;12.18;77.80;100465.25;714693;1203;114963;-80
2021/05/08 10:43:38;;;;;;;8.00;5.03;;;;;;;12.11;74.09;100467.59;715739;1202;113985;-80
2021/05/08 10:59:09;;;;;;;14.23;6.48;;;;;;;11.43;71.62;100486.80;716839;1203;113766;-79
2021/05/08 11:14:52;;;;;;;19.68;7.88;;;;;;;10.96;75.15;100484.73;719087;1205;115417;-77
2021/05/08 11:30:13;;;;;;;10.83;5.53;;;;;;;11.07;77.99;100480.35;715943;1202;114475;-77
2021/05/08 11:45:40;;;;;;;20.47;13.10;;;;;;;11.52;74.66;100474.66;713500;1202;115272;-79
2021/05/08 12:01:01;;;;;;;10.53;7.53;;;;;;;11.30;78.18;100487.05;713742;1202;114139;-78
2021/05/08 12:16:22;;;;;;;16.08;10.23;;;;;;;12.17;69.33;100476.73;714296;1177;114263;-78
2021/05/08 12:31:46;;;;;;;6.50;3.60;;;;;;;13.26;68.38;100477.98;713565;1178;115058;-77
2021/05/08 12:47:18;;;;;;;11.08;5.40;;;;;;;12.67;64.70;100494.06;717504;1180;113572;-84
2021/05/08 13:02:41;;;;;;;9.90;5.60;;;;;;;11.89;67.16;100521.28;715424;1206;114182;-80
2021/05/08 13:18:06;;;;;;;13.00;6.70;;;;;;;10.89;72.83;100530.04;716311;1203;113776;-79
2021/05/08 13:33:27;;;;;;;30.93;17.23;;;;;;;10.54;77.65;100562.70;716304;1184;114275;-78
2021/05/08 13:48:48;;;;;;;19.15;7.93;;;;;;;11.29;78.85;100563.34;716459;1180;114533;-78
2021/05/08 14:04:08;;;;;;;26.60;12.33;;;;;;;11.22;78.41;100547.30;716727;1177;113855;-79
2021/05/08 14:19:29;;;;;;;18.98;10.23;;;;;;;17.84;67.37;100543.80;716374;1202;114116;-78
2021/05/08 14:34:50;;;;;;;8.90;3.80;;;;;;;22.96;51.89;100535.81;714426;1202;115167;-78
2021/05/08 14:50:11;;;;;;;33.55;13.50;;;;;;;15.24;55.37;100542.81;714886;1177;113871;-77
2021/05/08 15:05:31;;;;;;;13.15;5.68;;;;;;;13.63;59.46;100582.50;714325;1205;115585;-76
2021/05/08 15:20:53;;;;;;;11.87;6.63;;;;;;;12.16;62.42;100611.83;713983;1178;113822;-77
2021/05/08 15:36:14;;;;;;;11.63;6.03;;;;;;;10.59;67.26;100666.28;713916;1178;114259;-76
2021/05/08 15:51:34;;;;;;;32.43;21.75;;;;;;;8.94;79.63;100605.88;714049;1202;115270;-81
2021/05/08 16:06:55;;;;;;;38.63;19.10;;;;;;;10.64;86.05;100626.56;714405;1180;115142;-81
2021/05/08 16:22:16;;;;;;;30.53;14.47;;;;;;;11.35;84.30;100643.40;714292;1203;115099;-80
2021/05/08 16:37:36;;;;;;;31.83;15.00;;;;;;;11.42;84.14;100645.37;714048;1202;114216;-80
2021/05/08 16:52:57;;;;;;;20.70;9.58;;;;;;;10.61;83.46;100642.54;713868;1202;114463;-81
2021/05/08 17:08:18;;;;;;;96.40;33.47;;;;;;;10.61;83.21;100642.54;714215;1203;113981;-78
2021/05/08 17:23:38;;;;;;;36.05;17.15;;;;;;;10.39;84.06;100644.31;714125;1205;114573;-80
2021/05/08 17:39:03;;;;;;;80.85;40.03;;;;;;;10.36;83.62;100660.31;714190;1205;115900;-79
2021/05/08 17:54:25;;;;;;;66.03;31.23;;;;;;;9.47;85.19;100683.86;713903;1179;114810;-75
2021/05/08 18:09:45;;;;;;;150.83;50.37;;;;;;;9.10;86.81;100686.67;713970;1202;114758;-75
2021/05/08 18:25:05;;;;;;;146.28;55.98;;;;;;;8.63;88.49;100699.72;713874;1205;113998;-74
2021/05/08 18:40:31;;;;;;;278.35;102.78;;;;;;;8.00;91.13;100715.51;713952;1203;114671;-75
2021/05/08 18:55:52;;;;;;;143.53;54.35;;;;;;;7.51;93.54;100719.75;713701;1202;114667;-75
2021/05/08 19:11:12;;;;;;;151.90;53.85;;;;;;;7.09;96.66;100717.31;713374;1202;114200;-76
2021/05/08 19:26:32;;;;;;;80.25;37.88;;;;;;;6.88;98.63;100723.95;713596;1202;114708;-75
2021/05/08 19:41:54;;;;;;;89.45;39.03;;;;;;;6.64;100.00;100725.44;714092;1205;115201;-75
2021/05/08 19:57:14;;;;;;;192.45;69.48;;;;;;;6.46;100.00;100726.63;714165;1202;114000;-77
2021/05/08 20:12:35;;;;;;;143.90;58.43;;;;;;;6.15;100.00;100732.00;714104;1199;114423;-77
2021/05/08 20:27:57;;;;;;;97.50;40.93;;;;;;;5.69;100.00;100740.00;713997;1202;114607;-76
2021/05/08 20:43:19;;;;;;;46.13;22.70;;;;;;;5.50;100.00;100740.25;714554;1203;114466;-75
2021/05/08 20:58:45;;;;;;;83.43;36.73;;;;;;;5.34;100.00;100740.32;715594;1202;115533;-75
2021/05/08 21:14:05;;;;;;;99.25;37.88;;;;;;;5.02;100.00;100750.02;714887;1202;113783;-75
2021/05/08 21:29:26;;;;;;;54.00;23.25;;;;;;;4.92;100.00;100744.48;715027;1202;114293;-77
2021/05/08 21:44:46;;;;;;;94.98;34.70;;;;;;;4.86;100.00;100742.22;714968;1201;114123;-75
2021/05/08 22:00:43;;;;;;;143.45;55.60;;;;;;;4.43;100.00;100767.08;715364;1202;114601;-74
2021/05/08 22:16:07;;;;;;;26.85;12.78;;;;;;;4.48;100.00;100765.08;717040;1202;115005;-75
2021/05/08 22:31:28;;;;;;;112.17;46.67;;;;;;;4.31;100.00;100760.80;715212;1187;113988;-74
2021/05/08 22:46:49;;;;;;;27.60;14.20;;;;;;;4.42;100.00;100752.44;714243;1202;114588;-74
2021/05/08 23:02:09;;;;;;;35.88;17.28;;;;;;;4.40;100.00;100754.27;714637;1203;114392;-74
2021/05/08 23:17:30;;;;;;;20.85;11.33;;;;;;;4.36;100.00;100744.97;715893;1202;115741;-75
2021/05/08 23:32:50;;;;;;;33.97;15.27;;;;;;;4.16;100.00;100762.47;714433;1179;114344;-75
2021/05/08 23:48:10;;;;;;;32.17;15.20;;;;;;;4.07;100.00;100754.34;714450;1203;114060;-75
